sensor_id;sensor_type;location;lat;lon;timestamp;temperature;humidity
39067;DHT22;24821;51.988;6.020;2022-09-14T00:01:57;17.30;95.00
39067;DHT22;24821;51.988;6.020;2022-09-14T00:04:24;17.30;95.10
39067;DHT22;24821;51.988;6.020;2022-09-14T00:06:49;17.30;95.10
39067;DHT22;24821;51.988;6.020;2022-09-14T00:09:22;17.30;95.10
39067;DHT22;24821;51.988;6.020;2022-09-14T00:11:49;17.30;95.10
39067;DHT22;24821;51.988;6.020;2022-09-14T00:14:16;17.40;95.20
39067;DHT22;24821;51.988;6.020;2022-09-14T00:16:42;17.40;95.10
39067;DHT22;24821;51.988;6.020;2022-09-14T00:19:23;17.40;95.10
39067;DHT22;24821;51.988;6.020;2022-09-14T00:21:57;17.50;95.00
39067;DHT22;24821;51.988;6.020;2022-09-14T00:24:24;17.40;95.10
39067;DHT22;24821;51.988;6.020;2022-09-14T00:26:50;17.30;95.20
39067;DHT22;24821;51.988;6.020;2022-09-14T00:29:16;17.30;95.30
39067;DHT22;24821;51.988;6.020;2022-09-14T00:31:42;17.40;95.30
39067;DHT22;24821;51.988;6.020;2022-09-14T00:34:11;17.40;95.40
39067;DHT22;24821;51.988;6.020;2022-09-14T00:36:40;17.40;95.40
39067;DHT22;24821;51.988;6.020;2022-09-14T00:39:06;17.40;95.40
39067;DHT22;24821;51.988;6.020;2022-09-14T00:41:35;17.40;95.40
39067;DHT22;24821;51.988;6.020;2022-09-14T00:46:46;17.40;95.40
39067;DHT22;24821;51.988;6.020;2022-09-14T00:51:53;17.40;95.30
39067;DHT22;24821;51.988;6.020;2022-09-14T00:54:21;17.40;95.30
39067;DHT22;24821;51.988;6.020;2022-09-14T00:56:47;17.40;95.20
39067;DHT22;24821;51.988;6.020;2022-09-14T00:59:18;17.40;95.10
39067;DHT22;24821;51.988;6.020;2022-09-14T01:01:45;17.40;95.10
39067;DHT22;24821;51.988;6.020;2022-09-14T01:04:10;17.40;95.10
39067;DHT22;24821;51.988;6.020;2022-09-14T01:09:34;17.40;95.10
39067;DHT22;24821;51.988;6.020;2022-09-14T01:20:06;17.20;95.00
39067;DHT22;24821;51.988;6.020;2022-09-14T01:23:34;17.30;95.00
39067;DHT22;24821;51.988;6.020;2022-09-14T01:31:04;17.20;95.00
39067;DHT22;24821;51.988;6.020;2022-09-14T01:33:40;17.10;95.10
39067;DHT22;24821;51.988;6.020;2022-09-14T01:36:09;17.20;95.10
39067;DHT22;24821;51.988;6.020;2022-09-14T01:38:45;17.10;95.00
39067;DHT22;24821;51.988;6.020;2022-09-14T01:41:16;17.10;95.10
39067;DHT22;24821;51.988;6.020;2022-09-14T01:43:53;17.00;95.30
39067;DHT22;24821;51.988;6.020;2022-09-14T01:46:24;17.10;95.30
39067;DHT22;24821;51.988;6.020;2022-09-14T01:48:57;17.00;95.30
39067;DHT22;24821;51.988;6.020;2022-09-14T01:51:39;17.00;95.20
39067;DHT22;24821;51.988;6.020;2022-09-14T01:54:24;17.10;95.30
39067;DHT22;24821;51.988;6.020;2022-09-14T01:57:06;17.00;95.30
39067;DHT22;24821;51.988;6.020;2022-09-14T01:59:37;17.00;95.20
39067;DHT22;24821;51.988;6.020;2022-09-14T02:02:09;17.00;95.30
39067;DHT22;24821;51.988;6.020;2022-09-14T02:07:08;17.00;95.30
39067;DHT22;24821;51.988;6.020;2022-09-14T02:09:34;17.00;95.30
39067;DHT22;24821;51.988;6.020;2022-09-14T02:12:00;17.10;95.30
39067;DHT22;24821;51.988;6.020;2022-09-14T02:14:27;17.10;95.30
39067;DHT22;24821;51.988;6.020;2022-09-14T02:16:52;17.10;95.10
39067;DHT22;24821;51.988;6.020;2022-09-14T02:19:19;17.10;95.00
39067;DHT22;24821;51.988;6.020;2022-09-14T02:21:44;17.10;95.10
39067;DHT22;24821;51.988;6.020;2022-09-14T02:24:10;17.10;95.00
39067;DHT22;24821;51.988;6.020;2022-09-14T02:26:37;17.10;95.00
39067;DHT22;24821;51.988;6.020;2022-09-14T02:29:03;17.10;95.10
39067;DHT22;24821;51.988;6.020;2022-09-14T02:34:51;17.10;95.00
39067;DHT22;24821;51.988;6.020;2022-09-14T02:37:53;17.10;95.10
39067;DHT22;24821;51.988;6.020;2022-09-14T02:40:36;17.10;95.10
39067;DHT22;24821;51.988;6.020;2022-09-14T02:48:32;17.00;95.10
39067;DHT22;24821;51.988;6.020;2022-09-14T02:51:14;17.00;95.10
39067;DHT22;24821;51.988;6.020;2022-09-14T02:54:17;17.00;95.10
39067;DHT22;24821;51.988;6.020;2022-09-14T02:56:45;17.00;95.00
39067;DHT22;24821;51.988;6.020;2022-09-14T02:59:11;17.00;95.10
39067;DHT22;24821;51.988;6.020;2022-09-14T03:01:37;17.00;95.10
39067;DHT22;24821;51.988;6.020;2022-09-14T03:04:03;17.00;95.20
39067;DHT22;24821;51.988;6.020;2022-09-14T03:06:28;16.90;95.30
39067;DHT22;24821;51.988;6.020;2022-09-14T03:08:54;16.90;95.30
39067;DHT22;24821;51.988;6.020;2022-09-14T03:11:19;16.90;95.40
39067;DHT22;24821;51.988;6.020;2022-09-14T03:13:45;16.90;95.50
39067;DHT22;24821;51.988;6.020;2022-09-14T03:16:13;16.90;95.50
39067;DHT22;24821;51.988;6.020;2022-09-14T03:18:40;16.90;95.60
39067;DHT22;24821;51.988;6.020;2022-09-14T03:21:07;16.90;95.70
39067;DHT22;24821;51.988;6.020;2022-09-14T03:23:37;16.90;95.80
39067;DHT22;24821;51.988;6.020;2022-09-14T03:26:12;16.90;95.90
39067;DHT22;24821;51.988;6.020;2022-09-14T03:28:38;16.90;96.00
39067;DHT22;24821;51.988;6.020;2022-09-14T03:31:07;16.80;96.20
39067;DHT22;24821;51.988;6.020;2022-09-14T03:33:33;16.70;96.30
39067;DHT22;24821;51.988;6.020;2022-09-14T03:35:59;16.70;96.50
39067;DHT22;24821;51.988;6.020;2022-09-14T03:38:25;16.70;96.60
39067;DHT22;24821;51.988;6.020;2022-09-14T03:40:55;16.60;96.70
39067;DHT22;24821;51.988;6.020;2022-09-14T03:43:23;16.60;96.90
39067;DHT22;24821;51.988;6.020;2022-09-14T03:45:48;16.60;97.00
39067;DHT22;24821;51.988;6.020;2022-09-14T03:48:14;16.50;97.00
39067;DHT22;24821;51.988;6.020;2022-09-14T03:50:40;16.50;97.10
39067;DHT22;24821;51.988;6.020;2022-09-14T03:53:06;16.50;97.10
39067;DHT22;24821;51.988;6.020;2022-09-14T03:55:32;16.50;97.10
39067;DHT22;24821;51.988;6.020;2022-09-14T03:57:57;16.50;97.20
39067;DHT22;24821;51.988;6.020;2022-09-14T04:00:23;16.50;97.30
39067;DHT22;24821;51.988;6.020;2022-09-14T04:02:49;16.50;97.30
39067;DHT22;24821;51.988;6.020;2022-09-14T04:05:15;16.50;97.30
39067;DHT22;24821;51.988;6.020;2022-09-14T04:07:40;16.50;97.30
39067;DHT22;24821;51.988;6.020;2022-09-14T04:10:06;16.50;97.30
39067;DHT22;24821;51.988;6.020;2022-09-14T04:12:36;16.50;97.40
39067;DHT22;24821;51.988;6.020;2022-09-14T04:15:06;16.50;97.40
39067;DHT22;24821;51.988;6.020;2022-09-14T04:17:32;16.50;97.50
39067;DHT22;24821;51.988;6.020;2022-09-14T04:19:57;16.50;97.50
39067;DHT22;24821;51.988;6.020;2022-09-14T04:22:23;16.50;97.40
39067;DHT22;24821;51.988;6.020;2022-09-14T04:24:48;16.50;97.40
39067;DHT22;24821;51.988;6.020;2022-09-14T04:27:14;16.50;97.40
39067;DHT22;24821;51.988;6.020;2022-09-14T04:29:40;16.50;97.50
39067;DHT22;24821;51.988;6.020;2022-09-14T04:32:05;16.50;97.70
39067;DHT22;24821;51.988;6.020;2022-09-14T04:34:31;16.50;97.70
39067;DHT22;24821;51.988;6.020;2022-09-14T04:36:57;16.50;97.70
39067;DHT22;24821;51.988;6.020;2022-09-14T04:39:22;16.40;97.70
39067;DHT22;24821;51.988;6.020;2022-09-14T04:41:48;16.40;97.70
39067;DHT22;24821;51.988;6.020;2022-09-14T04:44:13;16.40;97.80
39067;DHT22;24821;51.988;6.020;2022-09-14T04:46:40;16.40;97.90
39067;DHT22;24821;51.988;6.020;2022-09-14T04:49:07;16.40;98.20
39067;DHT22;24821;51.988;6.020;2022-09-14T04:51:33;16.40;98.10
39067;DHT22;24821;51.988;6.020;2022-09-14T04:54:00;16.40;98.10
39067;DHT22;24821;51.988;6.020;2022-09-14T04:56:27;16.30;98.20
39067;DHT22;24821;51.988;6.020;2022-09-14T04:58:56;16.30;98.30
39067;DHT22;24821;51.988;6.020;2022-09-14T05:01:26;16.30;98.40
39067;DHT22;24821;51.988;6.020;2022-09-14T05:03:53;16.30;98.40
39067;DHT22;24821;51.988;6.020;2022-09-14T05:06:21;16.30;98.50
39067;DHT22;24821;51.988;6.020;2022-09-14T05:08:47;16.30;98.60
39067;DHT22;24821;51.988;6.020;2022-09-14T05:11:15;16.30;98.70
39067;DHT22;24821;51.988;6.020;2022-09-14T05:13:41;16.30;98.70
39067;DHT22;24821;51.988;6.020;2022-09-14T05:16:15;16.30;98.70
39067;DHT22;24821;51.988;6.020;2022-09-14T05:18:41;16.30;98.80
39067;DHT22;24821;51.988;6.020;2022-09-14T05:21:09;16.20;98.80
39067;DHT22;24821;51.988;6.020;2022-09-14T05:23:35;16.20;98.90
39067;DHT22;24821;51.988;6.020;2022-09-14T05:26:01;16.20;98.90
39067;DHT22;24821;51.988;6.020;2022-09-14T05:28:27;16.20;99.00
39067;DHT22;24821;51.988;6.020;2022-09-14T05:30:53;16.20;99.00
39067;DHT22;24821;51.988;6.020;2022-09-14T05:33:19;16.20;99.30
39067;DHT22;24821;51.988;6.020;2022-09-14T05:35:45;16.20;99.10
39067;DHT22;24821;51.988;6.020;2022-09-14T05:38:11;16.30;99.10
39067;DHT22;24821;51.988;6.020;2022-09-14T05:40:36;16.30;99.10
39067;DHT22;24821;51.988;6.020;2022-09-14T05:43:02;16.30;99.30
39067;DHT22;24821;51.988;6.020;2022-09-14T05:45:27;16.30;99.20
39067;DHT22;24821;51.988;6.020;2022-09-14T05:47:53;16.30;99.30
39067;DHT22;24821;51.988;6.020;2022-09-14T05:50:18;16.30;99.30
39067;DHT22;24821;51.988;6.020;2022-09-14T05:52:44;16.30;99.30
39067;DHT22;24821;51.988;6.020;2022-09-14T05:55:10;16.30;99.30
39067;DHT22;24821;51.988;6.020;2022-09-14T05:57:35;16.30;99.40
39067;DHT22;24821;51.988;6.020;2022-09-14T06:00:02;16.30;99.40
39067;DHT22;24821;51.988;6.020;2022-09-14T06:02:28;16.20;99.30
39067;DHT22;24821;51.988;6.020;2022-09-14T06:04:53;16.30;99.40
39067;DHT22;24821;51.988;6.020;2022-09-14T06:07:19;16.30;99.50
39067;DHT22;24821;51.988;6.020;2022-09-14T06:09:44;16.30;99.50
39067;DHT22;24821;51.988;6.020;2022-09-14T06:12:10;16.30;99.60
39067;DHT22;24821;51.988;6.020;2022-09-14T06:14:36;16.30;99.60
39067;DHT22;24821;51.988;6.020;2022-09-14T06:17:01;16.30;99.60
39067;DHT22;24821;51.988;6.020;2022-09-14T06:19:27;16.30;99.60
39067;DHT22;24821;51.988;6.020;2022-09-14T06:21:53;16.40;99.70
39067;DHT22;24821;51.988;6.020;2022-09-14T06:24:18;16.40;99.70
39067;DHT22;24821;51.988;6.020;2022-09-14T06:26:44;16.40;99.70
39067;DHT22;24821;51.988;6.020;2022-09-14T06:29:09;16.40;99.70
39067;DHT22;24821;51.988;6.020;2022-09-14T06:31:35;16.40;99.80
39067;DHT22;24821;51.988;6.020;2022-09-14T06:34:01;16.50;99.80
39067;DHT22;24821;51.988;6.020;2022-09-14T06:36:27;16.50;99.90
39067;DHT22;24821;51.988;6.020;2022-09-14T06:38:54;16.50;99.80
39067;DHT22;24821;51.988;6.020;2022-09-14T06:41:22;16.50;99.80
39067;DHT22;24821;51.988;6.020;2022-09-14T06:43:48;16.50;99.80
39067;DHT22;24821;51.988;6.020;2022-09-14T06:46:18;16.50;99.80
39067;DHT22;24821;51.988;6.020;2022-09-14T06:48:47;16.50;99.80
39067;DHT22;24821;51.988;6.020;2022-09-14T06:51:18;16.50;99.80
39067;DHT22;24821;51.988;6.020;2022-09-14T06:53:45;16.50;99.90
39067;DHT22;24821;51.988;6.020;2022-09-14T06:56:11;16.50;99.90
39067;DHT22;24821;51.988;6.020;2022-09-14T06:58:36;16.40;99.90
39067;DHT22;24821;51.988;6.020;2022-09-14T07:01:11;16.50;99.90
39067;DHT22;24821;51.988;6.020;2022-09-14T07:03:38;16.50;99.90
39067;DHT22;24821;51.988;6.020;2022-09-14T07:06:11;16.50;99.90
39067;DHT22;24821;51.988;6.020;2022-09-14T07:08:38;16.60;99.90
39067;DHT22;24821;51.988;6.020;2022-09-14T07:11:07;16.50;99.90
39067;DHT22;24821;51.988;6.020;2022-09-14T07:13:33;16.60;99.90
39067;DHT22;24821;51.988;6.020;2022-09-14T07:15:59;16.60;99.90
39067;DHT22;24821;51.988;6.020;2022-09-14T07:18:25;16.60;99.90
39067;DHT22;24821;51.988;6.020;2022-09-14T07:20:53;16.60;99.90
39067;DHT22;24821;51.988;6.020;2022-09-14T07:23:20;16.60;99.90
39067;DHT22;24821;51.988;6.020;2022-09-14T07:25:45;16.60;99.90
39067;DHT22;24821;51.988;6.020;2022-09-14T07:28:11;16.60;99.90
39067;DHT22;24821;51.988;6.020;2022-09-14T07:30:37;16.60;99.90
39067;DHT22;24821;51.988;6.020;2022-09-14T07:33:06;16.60;99.90
39067;DHT22;24821;51.988;6.020;2022-09-14T07:35:32;16.70;99.90
39067;DHT22;24821;51.988;6.020;2022-09-14T07:37:58;16.70;99.90
39067;DHT22;24821;51.988;6.020;2022-09-14T07:40:23;16.80;99.90
39067;DHT22;24821;51.988;6.020;2022-09-14T07:42:50;16.80;99.90
39067;DHT22;24821;51.988;6.020;2022-09-14T07:45:16;16.80;99.90
39067;DHT22;24821;51.988;6.020;2022-09-14T07:47:41;16.80;99.90
39067;DHT22;24821;51.988;6.020;2022-09-14T07:50:07;16.80;99.90
39067;DHT22;24821;51.988;6.020;2022-09-14T07:52:33;16.80;99.90
39067;DHT22;24821;51.988;6.020;2022-09-14T07:54:59;16.80;99.90
39067;DHT22;24821;51.988;6.020;2022-09-14T07:57:24;16.80;99.90
39067;DHT22;24821;51.988;6.020;2022-09-14T07:59:50;16.80;99.90
39067;DHT22;24821;51.988;6.020;2022-09-14T08:02:15;16.90;99.90
39067;DHT22;24821;51.988;6.020;2022-09-14T08:04:41;16.90;99.90
39067;DHT22;24821;51.988;6.020;2022-09-14T08:07:07;16.90;99.90
39067;DHT22;24821;51.988;6.020;2022-09-14T08:09:33;17.00;99.90
39067;DHT22;24821;51.988;6.020;2022-09-14T08:11:59;17.00;99.80
39067;DHT22;24821;51.988;6.020;2022-09-14T08:14:25;17.10;99.80
39067;DHT22;24821;51.988;6.020;2022-09-14T08:16:50;17.10;99.60
39067;DHT22;24821;51.988;6.020;2022-09-14T08:19:17;17.10;99.50
39067;DHT22;24821;51.988;6.020;2022-09-14T08:21:45;17.20;99.50
39067;DHT22;24821;51.988;6.020;2022-09-14T08:24:12;17.10;99.50
39067;DHT22;24821;51.988;6.020;2022-09-14T08:26:38;17.10;99.50
39067;DHT22;24821;51.988;6.020;2022-09-14T08:29:05;17.00;99.50
39067;DHT22;24821;51.988;6.020;2022-09-14T08:31:35;17.00;99.50
39067;DHT22;24821;51.988;6.020;2022-09-14T08:34:02;17.10;99.60
39067;DHT22;24821;51.988;6.020;2022-09-14T08:36:37;17.10;99.50
39067;DHT22;24821;51.988;6.020;2022-09-14T08:39:04;17.10;99.50
39067;DHT22;24821;51.988;6.020;2022-09-14T08:41:40;17.00;99.60
39067;DHT22;24821;51.988;6.020;2022-09-14T08:47:01;17.00;99.50
39067;DHT22;24821;51.988;6.020;2022-09-14T08:49:51;17.00;99.60
39067;DHT22;24821;51.988;6.020;2022-09-14T08:52:29;17.00;99.50
39067;DHT22;24821;51.988;6.020;2022-09-14T08:54:58;17.00;99.60
39067;DHT22;24821;51.988;6.020;2022-09-14T08:57:31;17.00;99.50
39067;DHT22;24821;51.988;6.020;2022-09-14T09:00:09;17.00;99.50
39067;DHT22;24821;51.988;6.020;2022-09-14T09:03:14;17.00;99.40
39067;DHT22;24821;51.988;6.020;2022-09-14T09:08:52;17.00;99.50
39067;DHT22;24821;51.988;6.020;2022-09-14T09:11:25;17.00;99.30
39067;DHT22;24821;51.988;6.020;2022-09-14T09:13:55;17.00;99.50
39067;DHT22;24821;51.988;6.020;2022-09-14T09:16:27;17.10;99.50
39067;DHT22;24821;51.988;6.020;2022-09-14T09:18:59;17.20;99.60
39067;DHT22;24821;51.988;6.020;2022-09-14T09:21:35;17.20;99.50
39067;DHT22;24821;51.988;6.020;2022-09-14T09:24:26;17.30;99.40
39067;DHT22;24821;51.988;6.020;2022-09-14T09:26:53;17.30;99.20
39067;DHT22;24821;51.988;6.020;2022-09-14T09:29:19;17.20;99.30
39067;DHT22;24821;51.988;6.020;2022-09-14T09:31:49;17.40;99.30
39067;DHT22;24821;51.988;6.020;2022-09-14T09:34:16;17.40;99.10
39067;DHT22;24821;51.988;6.020;2022-09-14T09:36:47;17.40;99.00
39067;DHT22;24821;51.988;6.020;2022-09-14T09:39:14;17.40;98.90
39067;DHT22;24821;51.988;6.020;2022-09-14T09:41:47;17.40;99.00
39067;DHT22;24821;51.988;6.020;2022-09-14T09:44:13;17.50;98.90
39067;DHT22;24821;51.988;6.020;2022-09-14T09:46:44;17.40;98.90
39067;DHT22;24821;51.988;6.020;2022-09-14T09:49:31;17.50;98.90
39067;DHT22;24821;51.988;6.020;2022-09-14T09:52:14;17.50;98.80
39067;DHT22;24821;51.988;6.020;2022-09-14T09:54:47;17.50;98.80
39067;DHT22;24821;51.988;6.020;2022-09-14T09:57:39;17.50;98.80
39067;DHT22;24821;51.988;6.020;2022-09-14T10:02:40;17.50;98.90
39067;DHT22;24821;51.988;6.020;2022-09-14T10:05:28;17.50;98.90
39067;DHT22;24821;51.988;6.020;2022-09-14T10:08:05;17.60;98.90
39067;DHT22;24821;51.988;6.020;2022-09-14T10:13:03;17.60;99.00
39067;DHT22;24821;51.988;6.020;2022-09-14T10:15:30;17.60;99.10
39067;DHT22;24821;51.988;6.020;2022-09-14T10:23:25;17.70;98.90
39067;DHT22;24821;51.988;6.020;2022-09-14T10:28:38;17.70;99.00
39067;DHT22;24821;51.988;6.020;2022-09-14T10:33:50;17.70;99.00
39067;DHT22;24821;51.988;6.020;2022-09-14T10:36:31;17.80;99.10
39067;DHT22;24821;51.988;6.020;2022-09-14T10:39:23;17.80;99.10
39067;DHT22;24821;51.988;6.020;2022-09-14T10:42:17;17.90;98.80
39067;DHT22;24821;51.988;6.020;2022-09-14T10:47:20;17.90;98.90
39067;DHT22;24821;51.988;6.020;2022-09-14T10:55:41;18.10;98.60
39067;DHT22;24821;51.988;6.020;2022-09-14T11:07:07;18.10;97.60
39067;DHT22;24821;51.988;6.020;2022-09-14T11:09:46;18.10;97.40
39067;DHT22;24821;51.988;6.020;2022-09-14T11:12:25;18.10;97.40
39067;DHT22;24821;51.988;6.020;2022-09-14T11:15:16;18.00;97.40
39067;DHT22;24821;51.988;6.020;2022-09-14T11:20:37;18.10;97.40
39067;DHT22;24821;51.988;6.020;2022-09-14T11:26:02;18.20;97.20
39067;DHT22;24821;51.988;6.020;2022-09-14T11:28:58;18.20;97.40
39067;DHT22;24821;51.988;6.020;2022-09-14T11:31:54;18.20;97.30
39067;DHT22;24821;51.988;6.020;2022-09-14T11:34:44;18.20;97.30
39067;DHT22;24821;51.988;6.020;2022-09-14T11:37:15;18.20;97.10
39067;DHT22;24821;51.988;6.020;2022-09-14T11:39:57;18.10;97.10
39067;DHT22;24821;51.988;6.020;2022-09-14T11:42:31;18.20;97.20
39067;DHT22;24821;51.988;6.020;2022-09-14T11:48:38;18.20;97.30
39067;DHT22;24821;51.988;6.020;2022-09-14T11:50:41;18.20;97.20
39067;DHT22;24821;51.988;6.020;2022-09-14T11:53:11;18.30;97.20
39067;DHT22;24821;51.988;6.020;2022-09-14T11:55:38;18.30;97.20
39067;DHT22;24821;51.988;6.020;2022-09-14T11:58:18;18.40;97.00
39067;DHT22;24821;51.988;6.020;2022-09-14T12:00:59;18.40;96.90
39067;DHT22;24821;51.988;6.020;2022-09-14T12:11:50;18.60;96.80
39067;DHT22;24821;51.988;6.020;2022-09-14T12:17:15;18.70;96.70
39067;DHT22;24821;51.988;6.020;2022-09-14T12:19:43;18.80;96.70
39067;DHT22;24821;51.988;6.020;2022-09-14T12:25:13;18.80;96.60
39067;DHT22;24821;51.988;6.020;2022-09-14T12:27:41;18.80;96.60
39067;DHT22;24821;51.988;6.020;2022-09-14T12:33:01;18.90;96.50
39067;DHT22;24821;51.988;6.020;2022-09-14T12:40:53;19.20;96.30
39067;DHT22;24821;51.988;6.020;2022-09-14T12:46:08;19.20;96.10
39067;DHT22;24821;51.988;6.020;2022-09-14T12:56:41;19.40;95.90
39067;DHT22;24821;51.988;6.020;2022-09-14T13:04:56;19.40;95.80
39067;DHT22;24821;51.988;6.020;2022-09-14T13:07:27;19.40;95.80
39067;DHT22;24821;51.988;6.020;2022-09-14T13:09:55;19.40;95.50
39067;DHT22;24821;51.988;6.020;2022-09-14T13:12:30;19.40;95.50
39067;DHT22;24821;51.988;6.020;2022-09-14T13:15:04;19.40;95.40
39067;DHT22;24821;51.988;6.020;2022-09-14T13:17:30;19.40;95.40
39067;DHT22;24821;51.988;6.020;2022-09-14T13:20:01;19.50;95.40
39067;DHT22;24821;51.988;6.020;2022-09-14T13:22:30;19.40;95.30
39067;DHT22;24821;51.988;6.020;2022-09-14T13:24:59;19.50;95.40
39067;DHT22;24821;51.988;6.020;2022-09-14T13:27:29;19.50;95.20
39067;DHT22;24821;51.988;6.020;2022-09-14T13:30:00;19.50;95.40
39067;DHT22;24821;51.988;6.020;2022-09-14T13:32:26;19.50;95.40
39067;DHT22;24821;51.988;6.020;2022-09-14T13:34:52;19.60;95.40
39067;DHT22;24821;51.988;6.020;2022-09-14T13:37:19;19.70;95.30
39067;DHT22;24821;51.988;6.020;2022-09-14T13:39:51;19.70;95.40
39067;DHT22;24821;51.988;6.020;2022-09-14T13:42:18;19.80;95.30
39067;DHT22;24821;51.988;6.020;2022-09-14T13:44:44;19.80;95.10
39067;DHT22;24821;51.988;6.020;2022-09-14T13:47:13;19.90;95.00
39067;DHT22;24821;51.988;6.020;2022-09-14T13:49:41;19.90;94.90
39067;DHT22;24821;51.988;6.020;2022-09-14T13:55:19;19.90;95.00
39067;DHT22;24821;51.988;6.020;2022-09-14T14:00:31;20.00;94.90
39067;DHT22;24821;51.988;6.020;2022-09-14T14:03:02;20.00;94.80
39067;DHT22;24821;51.988;6.020;2022-09-14T14:05:30;20.20;94.50
39067;DHT22;24821;51.988;6.020;2022-09-14T14:07:58;20.20;94.30
39067;DHT22;24821;51.988;6.020;2022-09-14T14:10:31;20.30;94.30
39067;DHT22;24821;51.988;6.020;2022-09-14T14:12:58;20.40;93.90
39067;DHT22;24821;51.988;6.020;2022-09-14T14:17:50;20.60;93.50
39067;DHT22;24821;51.988;6.020;2022-09-14T14:22:59;20.60;93.40
39067;DHT22;24821;51.988;6.020;2022-09-14T14:25:30;20.50;93.30
39067;DHT22;24821;51.988;6.020;2022-09-14T14:27:59;20.40;93.40
39067;DHT22;24821;51.988;6.020;2022-09-14T14:30:26;20.30;93.50
39067;DHT22;24821;51.988;6.020;2022-09-14T14:32:54;20.20;93.70
39067;DHT22;24821;51.988;6.020;2022-09-14T14:35:27;20.20;93.60
39067;DHT22;24821;51.988;6.020;2022-09-14T14:37:53;20.20;93.50
39067;DHT22;24821;51.988;6.020;2022-09-14T14:40:19;20.10;93.70
39067;DHT22;24821;51.988;6.020;2022-09-14T14:42:45;20.10;93.70
39067;DHT22;24821;51.988;6.020;2022-09-14T14:45:22;20.10;94.00
39067;DHT22;24821;51.988;6.020;2022-09-14T14:47:51;20.10;94.10
39067;DHT22;24821;51.988;6.020;2022-09-14T14:50:27;20.20;94.10
39067;DHT22;24821;51.988;6.020;2022-09-14T14:52:54;20.20;94.10
39067;DHT22;24821;51.988;6.020;2022-09-14T14:55:20;20.20;94.30
39067;DHT22;24821;51.988;6.020;2022-09-14T14:57:47;20.30;94.20
39067;DHT22;24821;51.988;6.020;2022-09-14T15:00:19;20.30;94.00
39067;DHT22;24821;51.988;6.020;2022-09-14T15:02:45;20.30;93.60
39067;DHT22;24821;51.988;6.020;2022-09-14T15:05:11;20.20;93.60
39067;DHT22;24821;51.988;6.020;2022-09-14T15:07:37;20.20;93.50
39067;DHT22;24821;51.988;6.020;2022-09-14T15:10:04;20.20;93.60
39067;DHT22;24821;51.988;6.020;2022-09-14T15:12:31;20.30;93.60
39067;DHT22;24821;51.988;6.020;2022-09-14T15:14:57;20.30;93.40
39067;DHT22;24821;51.988;6.020;2022-09-14T15:17:23;20.40;93.30
39067;DHT22;24821;51.988;6.020;2022-09-14T15:19:48;20.60;93.30
39067;DHT22;24821;51.988;6.020;2022-09-14T15:22:14;20.60;93.10
39067;DHT22;24821;51.988;6.020;2022-09-14T15:24:40;20.60;93.00
39067;DHT22;24821;51.988;6.020;2022-09-14T15:27:06;20.70;92.90
39067;DHT22;24821;51.988;6.020;2022-09-14T15:29:31;20.70;92.80
39067;DHT22;24821;51.988;6.020;2022-09-14T15:31:57;20.70;92.70
39067;DHT22;24821;51.988;6.020;2022-09-14T15:34:23;20.70;92.70
39067;DHT22;24821;51.988;6.020;2022-09-14T15:36:52;20.70;92.60
39067;DHT22;24821;51.988;6.020;2022-09-14T15:39:22;20.70;92.50
39067;DHT22;24821;51.988;6.020;2022-09-14T15:41:48;20.70;92.50
39067;DHT22;24821;51.988;6.020;2022-09-14T15:44:14;20.60;92.30
39067;DHT22;24821;51.988;6.020;2022-09-14T15:46:41;20.60;92.20
39067;DHT22;24821;51.988;6.020;2022-09-14T15:49:11;20.60;92.30
39067;DHT22;24821;51.988;6.020;2022-09-14T15:51:39;20.50;92.20
39067;DHT22;24821;51.988;6.020;2022-09-14T15:54:06;20.50;92.30
39067;DHT22;24821;51.988;6.020;2022-09-14T15:56:31;20.50;92.40
39067;DHT22;24821;51.988;6.020;2022-09-14T15:58:58;20.50;92.20
39067;DHT22;24821;51.988;6.020;2022-09-14T16:01:24;20.40;92.40
39067;DHT22;24821;51.988;6.020;2022-09-14T16:03:59;20.40;92.20
39067;DHT22;24821;51.988;6.020;2022-09-14T16:06:25;20.30;92.20
39067;DHT22;24821;51.988;6.020;2022-09-14T16:08:51;20.30;92.20
39067;DHT22;24821;51.988;6.020;2022-09-14T16:11:16;20.20;92.40
39067;DHT22;24821;51.988;6.020;2022-09-14T16:13:42;20.20;92.50
39067;DHT22;24821;51.988;6.020;2022-09-14T16:16:13;20.20;92.60
39067;DHT22;24821;51.988;6.020;2022-09-14T16:18:39;20.10;92.70
39067;DHT22;24821;51.988;6.020;2022-09-14T16:21:17;20.10;92.90
39067;DHT22;24821;51.988;6.020;2022-09-14T16:23:45;20.10;93.00
39067;DHT22;24821;51.988;6.020;2022-09-14T16:26:22;20.00;93.00
39067;DHT22;24821;51.988;6.020;2022-09-14T16:28:49;20.00;93.00
39067;DHT22;24821;51.988;6.020;2022-09-14T16:31:22;19.80;93.10
39067;DHT22;24821;51.988;6.020;2022-09-14T16:33:50;19.70;93.40
39067;DHT22;24821;51.988;6.020;2022-09-14T16:36:19;19.70;93.50
39067;DHT22;24821;51.988;6.020;2022-09-14T16:38:45;19.60;93.70
39067;DHT22;24821;51.988;6.020;2022-09-14T16:41:11;19.60;93.80
39067;DHT22;24821;51.988;6.020;2022-09-14T16:43:37;19.50;94.00
39067;DHT22;24821;51.988;6.020;2022-09-14T16:48:34;19.40;94.20
39067;DHT22;24821;51.988;6.020;2022-09-14T16:51:00;19.30;94.30
39067;DHT22;24821;51.988;6.020;2022-09-14T16:53:27;19.20;94.40
39067;DHT22;24821;51.988;6.020;2022-09-14T16:58:31;19.20;94.80
39067;DHT22;24821;51.988;6.020;2022-09-14T17:01:04;19.00;94.90
39067;DHT22;24821;51.988;6.020;2022-09-14T17:03:31;19.00;94.90
39067;DHT22;24821;51.988;6.020;2022-09-14T17:06:04;18.80;95.00
39067;DHT22;24821;51.988;6.020;2022-09-14T17:08:30;18.80;95.20
39067;DHT22;24821;51.988;6.020;2022-09-14T17:10:56;18.60;95.30
39067;DHT22;24821;51.988;6.020;2022-09-14T17:13:23;18.60;95.70
39067;DHT22;24821;51.988;6.020;2022-09-14T17:15:49;18.50;95.80
39067;DHT22;24821;51.988;6.020;2022-09-14T17:18:15;18.50;96.00
39067;DHT22;24821;51.988;6.020;2022-09-14T17:20:54;18.40;96.20
39067;DHT22;24821;51.988;6.020;2022-09-14T17:23:20;18.40;96.30
39067;DHT22;24821;51.988;6.020;2022-09-14T17:25:46;18.40;96.50
39067;DHT22;24821;51.988;6.020;2022-09-14T17:28:11;18.30;96.60
39067;DHT22;24821;51.988;6.020;2022-09-14T17:30:37;18.30;96.70
39067;DHT22;24821;51.988;6.020;2022-09-14T17:33:02;18.20;96.80
39067;DHT22;24821;51.988;6.020;2022-09-14T17:35:28;18.20;96.90
39067;DHT22;24821;51.988;6.020;2022-09-14T17:37:54;18.10;96.90
39067;DHT22;24821;51.988;6.020;2022-09-14T17:40:20;18.10;97.00
39067;DHT22;24821;51.988;6.020;2022-09-14T17:42:45;18.10;97.10
39067;DHT22;24821;51.988;6.020;2022-09-14T17:45:11;18.00;97.20
39067;DHT22;24821;51.988;6.020;2022-09-14T17:47:36;18.00;97.30
39067;DHT22;24821;51.988;6.020;2022-09-14T17:50:02;17.90;97.40
39067;DHT22;24821;51.988;6.020;2022-09-14T17:52:28;17.80;97.50
39067;DHT22;24821;51.988;6.020;2022-09-14T17:54:53;17.80;97.70
39067;DHT22;24821;51.988;6.020;2022-09-14T17:57:19;17.70;97.80
39067;DHT22;24821;51.988;6.020;2022-09-14T17:59:45;17.70;97.90